Time;durP1;ratioP1;P1;durP2;ratioP2;P2;SDS_P1;SDS_P2;PMS_P1;PMS_P2;Temp;Humidity;BMP_temperature;BMP_pressure;BME280_temperature;BME280_humidity;BME280_pressure;Samples;Min_cycle;Max_cycle;Signal;HPM_P1;HPM_P2
2022/01/04 00:00:12;;;;;;;14.23;10.13;;;;;;;7.14;83.07;94902.78;5113805;28;20449;-78
2022/01/04 00:02:40;;;;;;;14.03;10.40;;;;;;;6.97;82.94;94903.16;5061143;28;20429;-78
2022/01/04 00:05:09;;;;;;;18.70;13.03;;;;;;;6.94;83.16;94891.16;5113436;28;20441;-79
2022/01/04 00:07:36;;;;;;;22.60;14.53;;;;;;;6.96;83.08;94880.63;5113840;28;20960;-78
2022/01/04 00:10:04;;;;;;;19.77;13.67;;;;;;;6.97;82.09;94874.47;5114006;28;21064;-78
2022/01/04 00:15:15;;;;;;;17.50;14.07;;;;;;;6.93;81.78;94889.47;5114383;28;20432;-79
2022/01/04 00:17:42;;;;;;;28.40;18.63;;;;;;;6.89;81.73;94890.63;5061562;28;20516;-79
2022/01/04 00:20:11;;;;;;;38.50;21.70;;;;;;;6.87;81.88;94889.06;5114053;28;20447;-79
2022/01/04 00:22:38;;;;;;;23.53;15.87;;;;;;;6.89;82.45;94897.63;5113778;28;20452;-79
2022/01/04 00:25:06;;;;;;;35.47;20.63;;;;;;;6.90;82.39;94886.25;5113815;28;20450;-79
2022/01/04 00:27:34;;;;;;;38.13;22.30;;;;;;;6.87;82.46;94887.31;5061485;28;20457;-79
2022/01/04 00:30:02;;;;;;;41.20;23.70;;;;;;;6.82;82.55;94895.44;5113720;28;20434;-80
2022/01/04 00:32:28;;;;;;;40.53;24.50;;;;;;;6.83;82.69;94898.91;5113300;28;20487;-79
2022/01/04 00:34:55;;;;;;;35.43;22.60;;;;;;;6.84;82.81;94897.94;5113536;28;20447;-79
2022/01/04 00:37:24;;;;;;;31.97;21.20;;;;;;;6.85;83.38;94899.63;5113327;28;20448;-79
2022/01/04 00:39:50;;;;;;;39.43;23.10;;;;;;;6.83;82.46;94904.94;5113188;28;20449;-79
2022/01/04 00:42:17;;;;;;;41.50;22.80;;;;;;;6.82;83.15;94911.09;5113523;28;20819;-79
2022/01/04 00:44:44;;;;;;;36.63;20.97;;;;;;;6.86;83.29;94916.09;5113558;28;20445;-79
2022/01/04 00:47:11;;;;;;;33.37;21.20;;;;;;;6.87;83.12;94913.38;5113322;28;20441;-79
2022/01/04 00:49:38;;;;;;;34.60;20.30;;;;;;;6.89;82.85;94906.28;5114212;28;20445;-79
2022/01/04 00:52:06;;;;;;;22.47;17.70;;;;;;;6.92;82.21;94916.50;5113923;28;20476;-79
2022/01/04 00:54:35;;;;;;;28.07;16.90;;;;;;;6.92;82.50;94923.50;5078349;28;20452;-79
2022/01/04 00:57:02;;;;;;;24.00;15.07;;;;;;;6.88;82.14;94902.00;5113738;28;20480;-79
2022/01/04 00:59:29;;;;;;;24.70;14.27;;;;;;;6.90;82.79;94896.69;5112733;28;20453;-78
2022/01/04 01:01:56;;;;;;;19.33;11.90;;;;;;;6.88;82.77;94891.56;5113166;28;20460;-79
2022/01/04 01:04:23;;;;;;;15.53;11.40;;;;;;;6.86;82.42;94890.84;5113130;28;20443;-79
2022/01/04 01:06:50;;;;;;;14.00;10.17;;;;;;;6.82;82.14;94876.38;5113215;28;20437;-79
2022/01/04 01:09:18;;;;;;;13.20;9.80;;;;;;;6.86;81.47;94884.81;5112955;28;20807;-80
2022/01/04 01:11:46;;;;;;;15.70;10.40;;;;;;;6.84;81.67;94872.72;5112624;28;20575;-79
2022/01/04 01:14:13;;;;;;;15.53;10.07;;;;;;;6.81;82.29;94872.09;5060755;28;20446;-79
2022/01/04 01:16:40;;;;;;;11.50;8.90;;;;;;;6.78;81.65;94872.31;5113156;28;20846;-79
2022/01/04 01:19:07;;;;;;;11.90;8.47;;;;;;;6.77;81.87;94866.25;5112907;28;20451;-79
2022/01/04 01:21:34;;;;;;;12.30;8.47;;;;;;;6.74;81.87;94868.25;5112967;28;20810;-79
2022/01/04 01:24:01;;;;;;;9.70;8.10;;;;;;;6.69;82.03;94863.38;5113066;28;20532;-79
2022/01/04 01:26:28;;;;;;;10.60;7.77;;;;;;;6.73;82.03;94874.41;5113029;28;20444;-80
2022/01/04 01:28:56;;;;;;;18.53;9.30;;;;;;;6.70;82.30;94867.63;5112796;28;20444;-79
2022/01/04 01:31:24;;;;;;;12.77;8.57;;;;;;;6.67;82.38;94864.41;5112522;28;21005;-80
2022/01/04 01:33:51;;;;;;;10.57;8.03;;;;;;;6.64;82.38;94862.81;5112651;28;20455;-79
2022/01/04 01:36:18;;;;;;;10.77;8.23;;;;;;;6.62;82.91;94867.31;5112967;28;20883;-80
2022/01/04 01:38:45;;;;;;;16.23;10.67;;;;;;;6.63;82.34;94858.56;5115505;28;20435;-79
2022/01/04 01:41:12;;;;;;;13.37;9.73;;;;;;;6.57;82.52;94859.00;5116624;28;20478;-79
2022/01/04 01:43:38;;;;;;;19.00;12.03;;;;;;;6.52;81.82;94866.31;5116750;28;20454;-79
2022/01/04 01:46:07;;;;;;;23.07;16.97;;;;;;;6.32;80.68;94875.47;5117096;28;20445;-79
2022/01/04 01:48:34;;;;;;;29.10;19.00;;;;;;;6.24;80.70;94887.38;5116366;28;20804;-79
2022/01/04 01:51:01;;;;;;;45.70;29.10;;;;;;;6.03;82.46;94894.84;5116648;28;20443;-80
2022/01/04 01:53:28;;;;;;;38.23;26.57;;;;;;;5.99;82.31;94889.03;5116409;28;20806;-79
2022/01/04 01:55:55;;;;;;;50.53;31.00;;;;;;;5.82;83.37;94882.31;5116303;28;20966;-79
2022/01/04 01:58:22;;;;;;;47.37;25.50;;;;;;;5.77;84.88;94884.38;5116268;28;20446;-79
2022/01/04 02:00:52;;;;;;;49.30;26.23;;;;;;;5.77;84.28;94883.53;5116294;28;20444;-80
2022/01/04 02:03:20;;;;;;;36.83;24.47;;;;;;;5.70;85.20;94880.50;5116312;28;20440;-80
2022/01/04 02:05:48;;;;;;;41.50;25.10;;;;;;;5.71;84.56;94876.13;5116224;28;20441;-79
2022/01/04 02:08:18;;;;;;;39.40;24.30;;;;;;;5.69;85.37;94881.44;5115889;28;20538;-79
2022/01/04 02:10:45;;;;;;;43.40;29.23;;;;;;;5.72;85.57;94885.63;5116471;28;20463;-80
2022/01/04 02:13:12;;;;;;;31.20;22.67;;;;;;;5.72;84.40;94880.41;5116068;28;20479;-80
2022/01/04 02:15:39;;;;;;;35.23;22.67;;;;;;;5.73;85.49;94882.91;5115963;28;20440;-80
2022/01/04 02:18:06;;;;;;;28.20;18.80;;;;;;;5.78;84.50;94874.78;5115887;28;20530;-80
2022/01/04 02:20:35;;;;;;;28.50;18.00;;;;;;;5.81;84.65;94869.41;5115891;28;20436;-79
2022/01/04 02:23:01;;;;;;;30.87;18.70;;;;;;;5.85;84.13;94873.47;5116101;28;20444;-79
2022/01/04 02:25:28;;;;;;;23.67;15.50;;;;;;;5.85;83.72;94876.06;5115737;28;20453;-79
2022/01/04 02:27:56;;;;;;;20.13;14.83;;;;;;;5.82;83.44;94876.28;5115950;28;20922;-80
2022/01/04 02:30:23;;;;;;;22.43;13.23;;;;;;;5.83;84.13;94870.13;5115649;28;20447;-80
2022/01/04 02:32:50;;;;;;;23.33;12.87;;;;;;;5.82;84.48;94876.28;5115527;28;20489;-79
2022/01/04 02:35:21;;;;;;;12.57;9.63;;;;;;;5.80;84.62;94868.56;5115289;28;20440;-79
2022/01/04 02:37:50;;;;;;;11.93;9.30;;;;;;;5.81;84.40;94864.19;5115648;28;20455;-79
2022/01/04 02:40:17;;;;;;;11.85;8.80;;;;;;;5.86;84.83;94872.53;5115017;28;20458;-79
2022/01/04 02:42:44;;;;;;;11.97;8.20;;;;;;;5.85;84.97;94868.25;5115155;28;20569;-79
2022/01/04 02:45:11;;;;;;;12.87;8.50;;;;;;;5.82;84.46;94866.69;5115232;28;20443;-79
2022/01/04 02:47:38;;;;;;;8.93;7.83;;;;;;;5.76;85.25;94866.25;5115329;28;20443;-79
2022/01/04 02:50:06;;;;;;;10.87;7.80;;;;;;;5.82;85.87;94856.28;5115394;28;20440;-79
2022/01/04 02:52:34;;;;;;;13.97;8.80;;;;;;;5.75;85.42;94852.41;5115491;28;20480;-79
2022/01/04 02:55:03;;;;;;;7.60;6.80;;;;;;;5.74;86.05;94852.50;5115152;28;20475;-80
2022/01/04 02:57:30;;;;;;;11.23;8.37;;;;;;;5.73;85.97;94846.47;5115285;28;20449;-79
2022/01/04 02:59:57;;;;;;;11.13;7.57;;;;;;;5.67;86.57;94835.63;5115370;28;20440;-79
2022/01/04 03:02:24;;;;;;;8.90;7.43;;;;;;;5.71;87.06;94843.13;5115169;28;20950;-79
2022/01/04 03:04:51;;;;;;;11.60;7.60;;;;;;;5.70;86.53;94838.84;5115299;28;20468;-79
2022/01/04 03:07:18;;;;;;;10.27;7.40;;;;;;;5.68;86.42;94847.72;5062603;28;20447;-79
2022/01/04 03:09:45;;;;;;;9.60;6.17;;;;;;;5.67;86.61;94840.84;5114957;28;20447;-80
2022/01/04 03:12:13;;;;;;;9.17;6.90;;;;;;;5.69;86.18;94836.34;5114842;28;20853;-80
2022/01/04 03:14:40;;;;;;;12.00;6.10;;;;;;;5.82;86.62;94840.66;5115415;28;20791;-80
2022/01/04 03:17:08;;;;;;;7.60;6.70;;;;;;;5.83;86.38;94838.88;5114769;28;20527;-80
2022/01/04 03:19:34;;;;;;;9.73;6.57;;;;;;;5.85;85.43;94840.44;5114501;28;20817;-79
2022/01/04 03:22:01;;;;;;;11.40;7.50;;;;;;;5.85;86.04;94839.63;5114994;28;20447;-79
2022/01/04 03:24:28;;;;;;;10.80;7.43;;;;;;;5.81;86.25;94844.19;5114969;28;20450;-80
2022/01/04 03:26:55;;;;;;;9.30;7.70;;;;;;;5.77;85.92;94844.47;5115182;28;20444;-79
2022/01/04 03:29:26;;;;;;;12.30;7.27;;;;;;;5.75;86.02;94838.53;5114613;28;20923;-80
2022/01/04 03:31:54;;;;;;;9.97;7.13;;;;;;;5.72;86.32;94836.97;5114525;28;20489;-79
2022/01/04 03:34:21;;;;;;;11.77;7.30;;;;;;;5.67;86.11;94830.41;5114765;28;20479;-79
2022/01/04 03:36:48;;;;;;;8.53;6.20;;;;;;;5.73;86.07;94837.81;5114446;28;20974;-79
2022/01/04 03:39:15;;;;;;;7.43;6.03;;;;;;;5.71;85.28;94837.09;5114576;28;20451;-79
2022/01/04 03:41:46;;;;;;;8.30;6.23;;;;;;;5.75;85.46;94849.78;5114035;28;20950;-80
2022/01/04 03:44:18;;;;;;;10.87;7.30;;;;;;;5.82;85.18;94852.84;5114388;28;20965;-80
2022/01/04 03:46:47;;;;;;;9.17;6.93;;;;;;;5.84;85.29;94854.41;5114947;28;20451;-79
2022/01/04 03:49:14;;;;;;;12.87;7.40;;;;;;;5.87;84.64;94858.56;5114165;28;20959;-79
2022/01/04 03:51:41;;;;;;;8.87;7.60;;;;;;;5.85;85.17;94857.84;5114188;28;20820;-80
2022/01/04 03:54:08;;;;;;;9.10;7.67;;;;;;;5.79;85.49;94856.50;5114082;28;20447;-79
2022/01/04 03:56:35;;;;;;;10.90;9.80;;;;;;;5.74;84.71;94857.72;5114259;28;20482;-79
2022/01/04 03:59:02;;;;;;;11.30;8.87;;;;;;;5.60;84.66;94869.88;5114386;28;20463;-80
2022/01/04 04:01:29;;;;;;;29.27;17.60;;;;;;;5.09;85.99;94870.63;5113068;28;20446;-79
2022/01/04 04:03:57;;;;;;;24.10;15.90;;;;;;;4.98;86.10;94873.94;5114264;28;20450;-80
2022/01/04 04:06:24;;;;;;;33.53;19.30;;;;;;;4.80;86.07;94865.50;5114011;28;20442;-79
2022/01/04 04:08:51;;;;;;;35.57;21.10;;;;;;;4.71;86.09;94860.91;5113650;28;20444;-79
2022/01/04 04:11:18;;;;;;;33.50;20.70;;;;;;;4.74;85.54;94871.09;5114143;28;20470;-79
2022/01/04 04:13:45;;;;;;;32.53;20.10;;;;;;;4.67;86.70;94867.22;5113546;28;21027;-79
2022/01/04 04:16:12;;;;;;;31.30;20.53;;;;;;;4.74;86.38;94862.47;5113594;28;20445;-79
2022/01/04 04:18:39;;;;;;;31.97;20.53;;;;;;;4.79;87.22;94866.44;5113853;28;20609;-79
2022/01/04 04:21:07;;;;;;;28.90;20.30;;;;;;;4.81;86.73;94863.75;5113397;28;20451;-79
2022/01/04 04:23:34;;;;;;;33.07;19.43;;;;;;;4.85;86.43;94863.44;5114008;28;20442;-79
2022/01/04 04:26:01;;;;;;;39.10;23.80;;;;;;;4.80;86.06;94875.06;5113844;28;20447;-79
2022/01/04 04:28:28;;;;;;;38.93;24.97;;;;;;;4.68;87.07;94862.84;5113822;28;21045;-79
2022/01/04 04:30:56;;;;;;;39.87;27.20;;;;;;;4.62;87.67;94869.25;5077814;28;20488;-80
2022/01/04 04:33:23;;;;;;;42.23;24.60;;;;;;;4.68;88.12;94868.88;5060895;28;20485;-80
2022/01/04 04:35:50;;;;;;;48.30;30.60;;;;;;;4.67;87.85;94869.81;5077646;28;20428;-80
2022/01/04 04:38:18;;;;;;;41.83;30.23;;;;;;;4.73;87.83;94871.19;5113014;28;20457;-77
2022/01/04 04:40:45;;;;;;;49.00;30.50;;;;;;;4.79;87.18;94873.41;5113615;28;20462;-82
2022/01/04 04:43:13;;;;;;;49.90;28.43;;;;;;;4.83;86.93;94874.88;5113498;28;20774;-80
2022/01/04 04:45:40;;;;;;;44.83;29.03;;;;;;;4.87;86.74;94887.59;5113177;28;20922;-81
2022/01/04 04:48:07;;;;;;;44.80;26.33;;;;;;;4.96;86.66;94894.84;5060982;28;20508;-80
2022/01/04 04:50:34;;;;;;;44.03;29.07;;;;;;;4.99;86.45;94891.19;5113270;28;20447;-79
2022/01/04 04:53:01;;;;;;;39.23;26.00;;;;;;;5.03;86.28;94891.84;5113166;28;20486;-81
2022/01/04 04:55:30;;;;;;;47.33;28.47;;;;;;;5.00;85.58;94894.63;5113521;28;20481;-79
2022/01/04 04:57:57;;;;;;;57.37;27.57;;;;;;;5.00;86.13;94887.66;5113017;28;20438;-80
2022/01/04 05:00:24;;;;;;;39.63;26.40;;;;;;;5.04;85.81;94883.09;5113354;28;20434;-80
2022/01/04 05:02:51;;;;;;;39.40;25.67;;;;;;;5.02;86.05;94885.81;5113291;28;20435;-80
2022/01/04 05:05:18;;;;;;;33.10;23.83;;;;;;;5.01;86.80;94883.31;5077432;28;20439;-80
2022/01/04 05:07:45;;;;;;;31.03;23.10;;;;;;;5.01;85.87;94881.53;5113018;28;20442;-80
2022/01/04 05:10:12;;;;;;;32.57;22.20;;;;;;;5.02;86.52;94879.78;5060162;28;20449;-80
2022/01/04 05:12:40;;;;;;;19.10;14.30;;;;;;;5.02;86.04;94878.00;5113835;28;20482;-80
2022/01/04 05:15:08;;;;;;;22.53;14.23;;;;;;;5.06;86.34;94882.06;5117314;28;20560;-78
2022/01/04 05:17:35;;;;;;;12.87;11.47;;;;;;;5.06;86.50;94889.03;5065141;28;20454;-80
2022/01/04 05:20:01;;;;;;;11.90;10.70;;;;;;;5.09;86.76;94878.44;5117081;28;21036;-79
2022/01/04 05:22:28;;;;;;;31.60;19.53;;;;;;;5.06;86.61;94881.25;5117077;28;20443;-79
2022/01/04 05:24:55;;;;;;;12.37;10.33;;;;;;;5.08;87.07;94882.81;5117684;28;20453;-80
2022/01/04 05:27:22;;;;;;;10.60;8.70;;;;;;;5.09;86.61;94875.84;5115599;28;20435;-78
2022/01/04 05:29:51;;;;;;;13.00;7.80;;;;;;;5.09;86.69;94881.03;5116902;28;20450;-79
2022/01/04 05:32:18;;;;;;;10.97;9.03;;;;;;;5.08;87.14;94868.97;5117017;28;20997;-80
2022/01/04 05:34:45;;;;;;;11.33;9.47;;;;;;;5.12;87.52;94868.66;5116819;28;20660;-78
2022/01/04 05:37:12;;;;;;;15.97;9.80;;;;;;;5.12;88.03;94865.25;5116658;28;20438;-81
2022/01/04 05:39:39;;;;;;;12.67;10.77;;;;;;;5.13;87.94;94874.72;5118167;28;20435;-80
2022/01/04 05:42:08;;;;;;;15.80;11.10;;;;;;;5.15;88.13;94868.47;5117124;28;20454;-79
2022/01/04 05:44:35;;;;;;;16.50;12.00;;;;;;;5.15;87.52;94862.44;5116460;28;20449;-79
2022/01/04 05:47:04;;;;;;;25.43;16.90;;;;;;;5.18;85.67;94870.03;5116396;28;20446;-79
2022/01/04 05:49:31;;;;;;;34.20;17.87;;;;;;;5.15;85.77;94865.88;5115237;28;20476;-77
2022/01/04 05:51:58;;;;;;;36.67;18.93;;;;;;;5.18;85.81;94862.25;5075991;28;20849;-77
2022/01/04 05:54:24;;;;;;;31.83;14.37;;;;;;;5.18;85.90;94857.88;5096485;28;20480;-78
2022/01/04 05:56:51;;;;;;;22.60;13.27;;;;;;;5.18;86.31;94864.84;5114912;28;20467;-79
2022/01/04 05:59:18;;;;;;;80.13;29.20;;;;;;;5.15;86.07;94860.66;5116109;28;20443;-79
2022/01/04 06:01:45;;;;;;;73.40;35.40;;;;;;;5.10;85.28;94852.34;5059510;28;20664;-78
2022/01/04 06:04:14;;;;;;;61.77;28.70;;;;;;;5.13;84.59;94856.50;5096046;28;20449;-79
2022/01/04 06:06:41;;;;;;;62.63;29.90;;;;;;;5.10;85.01;94859.31;5095297;28;20816;-78
2022/01/04 06:09:15;;;;;;;85.80;36.57;;;;;;;5.08;85.64;94853.38;5099603;28;20470;-78
2022/01/04 06:11:58;;;;;;;70.10;33.33;;;;;;;5.14;85.33;94863.38;5113481;28;20849;-79
2022/01/04 06:17:10;;;;;;;53.60;28.10;;;;;;;5.20;86.02;94862.97;5115682;28;20940;-78
2022/01/04 06:19:39;;;;;;;113.67;50.83;;;;;;;5.26;86.53;94862.59;5116022;28;20802;-78
2022/01/04 06:22:06;;;;;;;218.87;88.20;;;;;;;5.33;86.69;94869.06;5116590;28;20453;-78
2022/01/04 06:24:33;;;;;;;70.67;36.53;;;;;;;5.36;86.57;94865.44;5116323;28;20956;-80
2022/01/04 06:27:01;;;;;;;48.03;24.63;;;;;;;5.28;84.83;94871.13;5116552;28;20442;-79
2022/01/04 06:29:28;;;;;;;34.63;22.80;;;;;;;4.92;85.33;94874.31;5116652;28;20446;-78
2022/01/04 06:31:54;;;;;;;81.73;35.40;;;;;;;4.85;86.51;94870.41;5116488;28;20453;-79
2022/01/04 06:34:21;;;;;;;60.83;35.07;;;;;;;4.94;85.95;94875.91;5116745;28;20490;-78
2022/01/04 06:36:50;;;;;;;69.90;40.50;;;;;;;4.89;86.97;94867.53;5116196;28;20443;-78
2022/01/04 06:39:17;;;;;;;73.87;42.57;;;;;;;4.87;87.78;94866.78;5115796;28;20459;-78
2022/01/04 06:41:44;;;;;;;187.10;67.43;;;;;;;4.95;88.31;94856.75;5116142;28;20451;-77
2022/01/04 06:44:10;;;;;;;98.20;51.90;;;;;;;5.00;87.35;94855.63;5116491;28;20451;-77
2022/01/04 06:46:38;;;;;;;94.17;45.90;;;;;;;4.99;87.23;94862.59;5116175;28;20446;-77
2022/01/04 06:49:05;;;;;;;67.13;36.80;;;;;;;4.98;86.60;94859.16;5116324;28;20524;-77
2022/01/04 06:51:32;;;;;;;63.87;39.60;;;;;;;5.06;85.96;94861.28;5116534;28;20545;-78
2022/01/04 06:54:00;;;;;;;57.63;36.23;;;;;;;5.10;87.11;94857.53;5116091;28;20471;-79
2022/01/04 06:56:27;;;;;;;81.57;39.47;;;;;;;5.14;86.15;94858.16;5115794;28;20479;-79
2022/01/04 06:58:54;;;;;;;64.30;36.20;;;;;;;5.18;86.97;94850.06;5116447;28;20469;-78
2022/01/04 07:01:22;;;;;;;63.50;35.63;;;;;;;5.25;86.99;94853.13;5115653;28;20925;-79
2022/01/04 07:03:49;;;;;;;62.70;35.87;;;;;;;5.31;86.80;94860.53;5116087;28;20435;-79
2022/01/04 07:06:16;;;;;;;63.77;37.50;;;;;;;5.41;86.68;94859.00;5100765;28;20456;-78
2022/01/04 07:08:43;;;;;;;61.97;38.17;;;;;;;5.47;86.46;94863.78;5096108;28;20460;-79
2022/01/04 07:11:12;;;;;;;87.23;50.30;;;;;;;5.46;85.90;94863.88;5113499;28;20459;-78
2022/01/04 07:13:39;;;;;;;154.00;76.53;;;;;;;5.51;85.77;94860.06;5116765;28;20466;-78
2022/01/04 07:16:06;;;;;;;117.37;69.50;;;;;;;5.59;86.50;94875.19;5079986;28;20952;-79
2022/01/04 07:18:33;;;;;;;109.40;59.03;;;;;;;5.69;85.98;94876.25;5115934;28;20439;-78
2022/01/04 07:21:00;;;;;;;94.97;57.67;;;;;;;5.81;86.67;94874.59;5115442;28;20437;-79
2022/01/04 07:23:28;;;;;;;104.63;57.53;;;;;;;5.92;86.64;94869.53;5116023;28;20435;-78
2022/01/04 07:25:56;;;;;;;71.73;43.50;;;;;;;6.01;85.06;94876.72;5115412;28;20425;-78
2022/01/04 07:28:24;;;;;;;75.03;48.60;;;;;;;6.07;85.04;94872.88;5115813;28;20433;-79
2022/01/04 07:37:34;;;;;;;136.40;69.00;;;;;;;6.02;84.67;94867.97;5094146;28;20428;-77
2022/01/04 07:40:01;;;;;;;136.53;73.30;;;;;;;5.95;86.70;94877.16;5094526;28;20445;-77
2022/01/04 07:42:28;;;;;;;118.27;67.00;;;;;;;5.81;86.59;94875.44;5094869;28;20790;-77
2022/01/04 07:44:56;;;;;;;105.43;62.20;;;;;;;5.76;86.72;94874.06;5094694;28;20953;-79
2022/01/04 07:47:23;;;;;;;102.30;59.03;;;;;;;5.58;87.70;94863.94;5042795;28;20444;-78
2022/01/04 07:49:50;;;;;;;92.37;59.87;;;;;;;5.18;88.89;94854.44;5094879;28;20443;-78
2022/01/04 07:52:17;;;;;;;93.83;57.70;;;;;;;5.17;89.66;94842.38;5094315;28;20445;-79
2022/01/04 07:54:44;;;;;;;96.10;52.37;;;;;;;5.12;89.75;94844.44;5093603;28;20484;-78
2022/01/04 07:57:11;;;;;;;85.70;47.27;;;;;;;5.22;88.94;94848.97;5094313;28;20575;-78
2022/01/04 07:59:38;;;;;;;57.97;39.63;;;;;;;5.37;89.57;94854.94;5093944;28;20454;-78
2022/01/04 08:02:07;;;;;;;65.20;35.33;;;;;;;5.40;89.35;94854.72;5094018;28;20445;-79
2022/01/04 08:04:34;;;;;;;63.37;39.63;;;;;;;5.58;88.74;94856.13;5094118;28;21102;-78
2022/01/04 08:07:01;;;;;;;62.47;37.50;;;;;;;5.73;88.83;94850.84;5093628;28;20471;-78
2022/01/04 08:09:28;;;;;;;52.07;35.90;;;;;;;5.88;88.01;94847.22;5093652;28;20449;-79
2022/01/04 08:11:55;;;;;;;64.23;40.27;;;;;;;6.05;88.47;94846.09;5093406;28;20449;-77
2022/01/04 08:14:22;;;;;;;59.80;42.00;;;;;;;6.21;87.79;94857.16;5093595;28;20486;-78
2022/01/04 08:16:49;;;;;;;76.57;48.30;;;;;;;6.32;86.95;94849.44;5093224;28;20451;-77
2022/01/04 08:19:17;;;;;;;77.47;46.00;;;;;;;6.40;85.93;94852.34;5093151;28;20437;-77
2022/01/04 08:21:44;;;;;;;91.20;49.00;;;;;;;6.57;85.78;94852.94;5093714;28;20476;-79
2022/01/04 08:24:11;;;;;;;83.60;48.30;;;;;;;6.65;84.19;94851.50;5092973;28;20465;-79
2022/01/04 08:26:38;;;;;;;85.63;45.97;;;;;;;6.64;84.55;94856.78;5057895;28;20453;-79
2022/01/04 08:29:05;;;;;;;96.57;55.83;;;;;;;6.69;84.12;94850.34;5093349;28;20968;-77
2022/01/04 08:31:32;;;;;;;83.77;52.70;;;;;;;6.80;84.38;94852.16;5093217;28;20452;-77
2022/01/04 08:33:59;;;;;;;74.83;41.83;;;;;;;6.88;84.20;94851.63;5093427;28;20483;-79
2022/01/04 08:36:29;;;;;;;66.87;44.27;;;;;;;6.81;83.53;94848.63;5092916;28;20454;-79
2022/01/04 08:38:56;;;;;;;76.40;45.10;;;;;;;6.83;83.95;94850.19;5093187;28;20825;-79
2022/01/04 08:41:23;;;;;;;59.43;37.23;;;;;;;6.78;84.25;94847.06;5093113;28;20445;-79
2022/01/04 08:43:50;;;;;;;61.13;38.27;;;;;;;6.73;84.47;94849.16;5092724;28;20438;-78
2022/01/04 08:46:17;;;;;;;57.60;37.20;;;;;;;6.79;84.78;94840.06;5092728;28;20525;-78
2022/01/04 08:48:44;;;;;;;59.80;37.87;;;;;;;6.66;84.93;94831.47;5036726;28;20432;-78
2022/01/04 08:51:11;;;;;;;55.23;31.37;;;;;;;6.62;85.74;94838.66;5093177;28;20895;-79
2022/01/04 08:53:39;;;;;;;48.43;31.33;;;;;;;6.51;86.53;94835.97;5093001;28;20489;-79
2022/01/04 08:56:06;;;;;;;45.97;30.93;;;;;;;6.63;86.88;94832.50;5093288;28;20481;-78
2022/01/04 08:58:33;;;;;;;42.67;29.60;;;;;;;6.72;87.59;94829.25;5093208;28;20457;-80
2022/01/04 09:01:02;;;;;;;44.20;31.87;;;;;;;6.78;87.11;94821.00;5093334;28;20452;-78
2022/01/04 09:03:30;;;;;;;45.63;26.80;;;;;;;6.79;87.02;94832.25;5093080;28;20499;-78
2022/01/04 09:05:57;;;;;;;48.77;28.73;;;;;;;6.79;86.65;94821.81;5093016;28;20460;-78
2022/01/04 09:08:24;;;;;;;39.93;26.80;;;;;;;6.88;86.41;94828.16;5092643;28;20442;-78
2022/01/04 09:10:54;;;;;;;46.10;25.70;;;;;;;6.95;86.34;94832.84;5092728;28;20461;-79
2022/01/04 09:13:22;;;;;;;37.10;24.90;;;;;;;7.03;86.33;94829.66;5092440;28;20528;-78
2022/01/04 09:18:46;;;;;;;36.13;24.30;;;;;;;6.95;86.66;94814.59;5049956;28;20471;-78
2022/01/04 09:21:15;;;;;;;37.43;24.90;;;;;;;7.10;86.18;94810.84;5092482;28;20441;-79
2022/01/04 09:23:43;;;;;;;42.67;25.97;;;;;;;7.20;86.62;94805.78;5092381;28;20453;-79
2022/01/04 09:26:13;;;;;;;35.10;25.83;;;;;;;7.33;85.83;94800.53;5093120;28;20446;-77
2022/01/04 09:28:40;;;;;;;35.77;26.47;;;;;;;7.38;85.63;94788.78;5092524;28;20446;-78
2022/01/04 09:31:08;;;;;;;43.27;28.27;;;;;;;7.53;84.80;94786.84;5092210;28;20937;-78
2022/01/04 09:33:36;;;;;;;44.97;29.17;;;;;;;7.65;84.47;94780.69;5092435;28;20576;-78
2022/01/04 09:36:04;;;;;;;41.97;28.40;;;;;;;7.77;83.69;94771.91;5092594;28;20440;-78
2022/01/04 09:38:31;;;;;;;45.77;27.27;;;;;;;7.86;82.88;94767.78;5092673;28;20452;-78
2022/01/04 09:40:59;;;;;;;41.20;27.93;;;;;;;7.95;82.52;94763.63;5092102;28;20450;-79
2022/01/04 09:43:27;;;;;;;40.30;25.40;;;;;;;7.88;82.15;94750.22;5092745;28;20443;-78
2022/01/04 09:45:54;;;;;;;37.50;25.70;;;;;;;7.88;82.89;94750.22;5092139;28;20444;-79
2022/01/04 09:48:21;;;;;;;33.37;24.00;;;;;;;7.88;83.28;94738.94;5092595;28;20453;-78
2022/01/04 09:50:50;;;;;;;36.73;22.07;;;;;;;7.96;83.60;94734.78;5092077;28;20444;-78
2022/01/04 09:53:20;;;;;;;32.23;21.47;;;;;;;8.11;83.13;94737.16;5092229;28;20476;-78
2022/01/04 09:55:49;;;;;;;33.53;19.23;;;;;;;8.23;82.01;94730.97;5091869;28;21053;-77
2022/01/04 09:58:18;;;;;;;29.07;22.33;;;;;;;8.31;81.78;94723.34;5092154;28;20450;-77
2022/01/04 10:00:49;;;;;;;33.60;19.47;;;;;;;8.51;81.18;94724.44;5095794;28;20448;-77
2022/01/04 10:03:18;;;;;;;27.03;19.23;;;;;;;8.51;79.33;94719.22;5095646;28;20493;-78
2022/01/04 10:05:46;;;;;;;18.30;14.80;;;;;;;8.61;77.59;94727.97;5095660;28;20447;-79
2022/01/04 10:08:15;;;;;;;23.90;17.10;;;;;;;8.69;76.95;94715.13;5095923;28;20458;-79
2022/01/04 10:10:43;;;;;;;24.17;17.13;;;;;;;8.82;76.95;94717.59;5096009;28;20455;-79
2022/01/04 10:13:12;;;;;;;34.37;17.90;;;;;;;8.93;76.31;94709.69;5095376;28;20444;-78
2022/01/04 10:15:42;;;;;;;27.77;19.70;;;;;;;9.06;77.34;94702.50;5095645;28;20483;-79
2022/01/04 10:18:23;;;;;;;32.23;21.17;;;;;;;9.04;77.45;94693.97;5095858;28;20443;-79
2022/01/04 10:20:53;;;;;;;37.50;24.00;;;;;;;8.97;77.86;94683.16;5095552;28;20446;-79
2022/01/04 10:23:22;;;;;;;29.50;22.00;;;;;;;8.98;77.80;94690.06;5095466;28;20451;-79
2022/01/04 10:25:51;;;;;;;28.00;22.60;;;;;;;8.94;78.18;94688.63;5095416;28;20473;-79
2022/01/04 10:28:29;;;;;;;42.83;28.57;;;;;;;8.91;78.81;94686.25;5095136;28;20450;-80
2022/01/04 10:31:00;;;;;;;37.17;25.20;;;;;;;8.87;78.14;94684.84;5095473;28;20436;-79
2022/01/04 10:33:31;;;;;;;35.97;23.87;;;;;;;8.96;78.69;94675.41;5095275;28;20808;-79
2022/01/04 10:36:00;;;;;;;31.60;20.10;;;;;;;8.89;78.43;94669.03;5094975;28;20446;-79
2022/01/04 10:38:30;;;;;;;38.77;20.70;;;;;;;8.98;79.05;94663.88;5094922;28;20570;-79
2022/01/04 10:41:00;;;;;;;25.57;17.73;;;;;;;9.05;78.76;94661.59;5094881;28;20808;-79
2022/01/04 10:43:29;;;;;;;27.03;17.53;;;;;;;9.05;78.39;94658.16;5095307;28;20471;-78
2022/01/04 10:45:57;;;;;;;30.80;20.47;;;;;;;8.98;79.79;94663.88;5095055;28;20447;-78
2022/01/04 10:48:26;;;;;;;30.50;20.20;;;;;;;9.08;80.48;94663.97;5094818;28;20941;-78
2022/01/04 10:50:57;;;;;;;31.73;20.13;;;;;;;9.10;79.94;94662.03;5094904;28;20811;-78
2022/01/04 10:53:27;;;;;;;33.80;21.93;;;;;;;9.00;80.52;94650.69;5094632;28;20946;-78
2022/01/04 10:56:05;;;;;;;30.30;20.80;;;;;;;8.89;79.82;94653.31;5094331;28;20491;-78
2022/01/04 10:58:35;;;;;;;26.70;20.37;;;;;;;8.96;79.27;94649.25;5094584;28;20439;-78
2022/01/04 11:01:04;;;;;;;29.73;21.77;;;;;;;9.03;79.64;94652.22;5094725;28;20443;-78
2022/01/04 11:03:33;;;;;;;27.13;19.47;;;;;;;9.14;79.85;94646.91;5094473;28;20447;-78
2022/01/04 11:06:06;;;;;;;29.30;20.17;;;;;;;9.17;80.06;94642.25;5059422;28;20452;-78
2022/01/04 11:08:32;;;;;;;30.10;19.17;;;;;;;9.25;79.82;94634.59;5094210;28;20443;-78
2022/01/04 11:11:00;;;;;;;27.03;17.80;;;;;;;9.20;79.50;94635.91;5094097;28;20530;-77
2022/01/04 11:13:27;;;;;;;28.10;16.50;;;;;;;9.36;79.27;94641.53;5094304;28;20510;-78
2022/01/04 11:15:54;;;;;;;24.07;15.60;;;;;;;9.40;78.13;94642.13;5094169;28;20483;-78
2022/01/04 11:18:21;;;;;;;23.30;15.97;;;;;;;9.44;77.40;94628.63;5094368;28;20440;-78
2022/01/04 11:20:49;;;;;;;18.87;14.40;;;;;;;9.53;77.38;94638.31;5094579;28;20437;-78
2022/01/04 11:23:23;;;;;;;15.73;11.10;;;;;;;9.28;76.05;94626.50;5094211;28;20440;-78
2022/01/04 11:25:50;;;;;;;19.77;12.87;;;;;;;9.36;76.59;94619.78;5058366;28;20483;-78
2022/01/04 11:28:17;;;;;;;17.83;14.37;;;;;;;9.52;76.53;94630.59;5093966;28;20806;-78
2022/01/04 11:31:14;;;;;;;17.80;13.37;;;;;;;9.70;76.28;94622.97;5093948;28;20946;-78
2022/01/04 11:34:10;;;;;;;22.67;15.10;;;;;;;9.76;75.74;94617.19;4963030;28;20447;-78
2022/01/04 11:36:39;;;;;;;24.23;12.53;;;;;;;9.78;75.37;94612.66;4934653;29;20473;-79
2022/01/04 11:39:29;;;;;;;17.63;12.30;;;;;;;9.77;75.21;94611.00;4934334;29;20451;-79
2022/01/04 11:41:57;;;;;;;17.43;12.23;;;;;;;9.68;74.99;94602.13;4934214;29;20458;-79
2022/01/04 11:44:26;;;;;;;17.17;12.40;;;;;;;9.68;75.51;94599.53;4934156;29;20451;-79